createdAt,value
2023-01-09T00:01:00.432Z,6.22
2023-01-09T00:04:04.411Z,5.70
2023-01-09T00:07:06.646Z,4.63
2023-01-09T00:10:10.097Z,4.80
2023-01-09T00:13:13.611Z,5.05
2023-01-09T00:16:16.400Z,5.63
2023-01-09T00:19:18.490Z,4.80
2023-01-09T00:22:20.771Z,4.72
2023-01-09T00:25:22.958Z,5.85
2023-01-09T00:28:25.107Z,5.93
2023-01-09T00:31:27.751Z,5.00
2023-01-09T00:34:30.044Z,5.78
2023-01-09T00:37:32.186Z,4.18
2023-01-09T00:40:34.467Z,5.32
2023-01-09T00:43:47.101Z,5.13
2023-01-09T00:46:55.655Z,7.50
2023-01-09T00:50:06.515Z,5.90
2023-01-09T00:53:15.519Z,4.43
2023-01-09T00:56:19.643Z,3.60
2023-01-09T00:59:22.237Z,5.50
2023-01-09T01:02:24.418Z,4.15
2023-01-09T01:05:45.393Z,4.63
2023-01-09T01:08:47.577Z,4.47
2023-01-09T01:11:49.711Z,4.47
2023-01-09T01:14:52.624Z,4.70
2023-01-09T01:17:55.285Z,4.05
2023-01-09T01:20:57.581Z,5.07
2023-01-09T01:23:59.666Z,5.03
2023-01-09T01:27:01.887Z,4.88
2023-01-09T01:30:04.916Z,5.60
2023-01-09T01:33:07.839Z,4.35
2023-01-09T01:36:10.143Z,5.15
2023-01-09T01:39:12.390Z,6.63
2023-01-09T01:42:15.294Z,4.72
2023-01-09T01:45:36.014Z,5.60
2023-01-09T01:48:38.280Z,4.93
2023-01-09T01:51:44.724Z,4.90
2023-01-09T01:54:47.529Z,5.43
2023-01-09T01:57:55.378Z,4.43
2023-01-09T02:00:58.209Z,4.25
2023-01-09T02:04:02.442Z,5.45
2023-01-09T02:07:08.970Z,4.85
2023-01-09T02:10:11.291Z,4.30
2023-01-09T02:13:14.183Z,5.53
2023-01-09T02:16:31.500Z,6.22
2023-01-09T02:19:42.475Z,4.45
2023-01-09T02:23:09.109Z,5.22
2023-01-09T02:26:42.972Z,4.00
2023-01-09T02:30:22.045Z,4.85
2023-01-09T02:33:54.236Z,6.15
2023-01-09T02:37:28.001Z,3.95
2023-01-09T02:40:42.838Z,5.35
2023-01-09T02:43:45.105Z,5.22
2023-01-09T02:46:47.372Z,4.80
2023-01-09T02:49:55.701Z,5.05
2023-01-09T02:53:23.026Z,5.68
2023-01-09T02:56:43.907Z,4.75
2023-01-09T02:59:55.056Z,6.28
2023-01-09T03:03:14.431Z,4.55
2023-01-09T03:06:37.102Z,5.43
2023-01-09T03:09:42.227Z,4.63
2023-01-09T03:12:46.574Z,5.95
2023-01-09T03:15:51.094Z,6.53
2023-01-09T03:18:55.991Z,5.15
2023-01-09T03:21:59.258Z,5.03
2023-01-09T03:25:01.311Z,5.32
2023-01-09T03:28:06.346Z,6.32
2023-01-09T03:31:08.802Z,6.43
2023-01-09T03:34:10.934Z,6.38
2023-01-09T03:37:13.080Z,5.85
2023-01-09T03:40:15.972Z,7.55
2023-01-09T03:43:18.113Z,5.45
2023-01-09T03:46:20.419Z,5.25
2023-01-09T03:49:22.772Z,6.53
2023-01-09T03:52:24.881Z,8.93
2023-01-09T03:55:27.349Z,5.88
2023-01-09T03:58:29.796Z,5.95
2023-01-09T04:01:33.130Z,6.88
2023-01-09T04:04:35.327Z,5.35
2023-01-09T04:07:37.391Z,4.82
2023-01-09T04:10:39.900Z,7.57
2023-01-09T04:13:42.236Z,6.55
2023-01-09T04:16:44.638Z,6.90
2023-01-09T04:19:46.800Z,6.15
2023-01-09T04:22:48.847Z,5.72
2023-01-09T04:25:50.938Z,5.35
2023-01-09T04:28:53.024Z,6.65
2023-01-09T04:31:55.220Z,6.55
2023-01-09T04:34:57.450Z,6.07
2023-01-09T04:38:00.918Z,5.53
2023-01-09T04:41:03.092Z,6.93
2023-01-09T04:44:05.704Z,7.60
2023-01-09T04:47:07.769Z,6.70
2023-01-09T04:50:11.498Z,6.13
2023-01-09T04:53:13.674Z,5.10
2023-01-09T04:56:15.720Z,5.00
2023-01-09T04:59:18.117Z,5.82
2023-01-09T05:02:20.332Z,5.72
2023-01-09T05:05:22.535Z,5.18
2023-01-09T05:08:24.639Z,7.60
2023-01-09T05:11:27.290Z,7.35
2023-01-09T05:14:29.504Z,6.22
2023-01-09T05:17:31.641Z,6.47
2023-01-09T05:20:34.220Z,5.25
2023-01-09T05:23:36.481Z,5.90
2023-01-09T05:26:38.545Z,7.43
2023-01-09T05:29:40.699Z,12.73
2023-01-09T05:32:42.836Z,5.38
2023-01-09T05:35:44.919Z,6.30
2023-01-09T05:38:47.064Z,9.77
2023-01-09T05:41:49.311Z,7.20
2023-01-09T05:44:51.355Z,5.63
2023-01-09T05:47:53.737Z,6.30
2023-01-09T05:50:55.982Z,5.55
2023-01-09T05:53:59.295Z,5.72
2023-01-09T05:57:01.487Z,6.40
2023-01-09T06:00:04.754Z,8.35
2023-01-09T06:03:06.945Z,6.07
2023-01-09T06:06:09.259Z,6.97
2023-01-09T06:09:11.790Z,8.20
2023-01-09T06:12:14.097Z,5.65
2023-01-09T06:15:17.400Z,7.03
2023-01-09T06:18:19.469Z,7.68
2023-01-09T06:21:21.711Z,7.47
2023-01-09T06:24:23.865Z,7.68
2023-01-09T06:27:26.055Z,9.20
2023-01-09T06:30:28.355Z,9.23
2023-01-09T06:33:30.703Z,6.30
2023-01-09T06:36:32.854Z,5.88
2023-01-09T06:39:35.019Z,8.18
2023-01-09T06:42:37.047Z,4.90
2023-01-09T06:45:39.088Z,10.27
2023-01-09T06:48:41.246Z,7.57
2023-01-09T06:51:43.487Z,5.97
2023-01-09T06:54:45.579Z,5.80
2023-01-09T06:57:47.777Z,5.13
2023-01-09T07:00:49.954Z,7.00
2023-01-09T07:03:52.139Z,7.95
2023-01-09T07:06:54.237Z,11.07
2023-01-09T07:09:56.866Z,22.23
2023-01-09T07:12:58.941Z,10.55
2023-01-09T07:16:03.370Z,8.77
2023-01-09T07:19:05.652Z,8.35
2023-01-09T07:22:08.300Z,9.52
2023-01-09T07:25:10.512Z,7.70
2023-01-09T07:28:12.740Z,10.50
2023-01-09T07:31:14.939Z,8.20
2023-01-09T07:34:17.120Z,8.55
2023-01-09T07:37:22.241Z,10.15
2023-01-09T07:40:24.464Z,10.30
2023-01-09T07:43:26.609Z,21.17
2023-01-09T07:46:29.016Z,10.00
2023-01-09T07:49:31.219Z,12.75
2023-01-09T07:52:33.483Z,11.15
2023-01-09T07:55:36.031Z,13.15
2023-01-09T07:58:38.711Z,10.45
2023-01-09T08:01:40.947Z,13.88
2023-01-09T08:04:43.076Z,12.48
2023-01-09T08:07:45.334Z,12.27
2023-01-09T08:10:47.449Z,12.85
2023-01-09T08:13:49.619Z,12.02
2023-01-09T08:16:51.688Z,14.93
2023-01-09T08:19:54.033Z,14.05
2023-01-09T08:22:56.883Z,14.88
2023-01-09T08:25:59.021Z,14.70
2023-01-09T08:29:01.078Z,15.75
2023-01-09T08:32:03.266Z,17.23
2023-01-09T08:35:06.063Z,18.02
2023-01-09T08:38:08.269Z,16.75
2023-01-09T08:41:28.803Z,15.05
2023-01-09T08:44:49.708Z,17.30
2023-01-09T08:47:51.867Z,16.70
2023-01-09T08:50:54.440Z,17.50
2023-01-09T08:53:57.330Z,22.52
2023-01-09T08:56:59.580Z,18.13
2023-01-09T09:00:02.421Z,18.95
2023-01-09T09:03:05.230Z,19.20
2023-01-09T09:06:07.760Z,19.70
2023-01-09T09:09:10.746Z,18.00
2023-01-09T09:12:13.331Z,19.80
2023-01-09T09:15:23.912Z,20.30
2023-01-09T09:18:26.206Z,26.58
2023-01-09T09:21:28.358Z,25.15
2023-01-09T09:24:30.515Z,26.85
2023-01-09T09:27:33.284Z,22.58
2023-01-09T09:30:35.817Z,22.02
2023-01-09T09:33:37.965Z,24.20
2023-01-09T09:36:40.136Z,19.48
2023-01-09T09:39:42.378Z,21.95
2023-01-09T09:43:32.389Z,19.02
2023-01-09T09:46:47.830Z,19.88
2023-01-09T09:49:56.747Z,20.52
2023-01-09T09:53:16.539Z,21.13
2023-01-09T09:56:21.799Z,21.75
2023-01-09T09:59:29.767Z,22.35
2023-01-09T10:02:46.068Z,24.15
2023-01-09T10:05:50.912Z,22.48
2023-01-09T10:09:17.859Z,22.58
2023-01-09T10:12:42.562Z,23.60
2023-01-09T10:16:06.271Z,21.35
2023-01-09T10:19:37.279Z,23.33
2023-01-09T10:22:57.662Z,23.77
2023-01-09T10:29:16.842Z,21.00
2023-01-09T10:32:45.540Z,24.20
2023-01-09T10:36:13.711Z,23.58
2023-01-09T10:39:33.519Z,23.30
2023-01-09T10:42:44.559Z,21.37
2023-01-09T10:45:54.582Z,20.30
2023-01-09T10:49:01.308Z,22.92
2023-01-09T10:52:15.968Z,22.02
2023-01-09T10:55:42.159Z,25.45
2023-01-09T10:58:44.500Z,25.10
2023-01-09T11:01:46.749Z,25.52
2023-01-09T11:04:49.183Z,27.52
2023-01-09T11:08:34.898Z,26.92
2023-01-09T11:11:40.851Z,25.52
2023-01-09T11:14:42.866Z,23.40
2023-01-09T11:17:50.379Z,28.33
2023-01-09T11:20:53.095Z,31.15
2023-01-09T11:23:56.618Z,25.65
2023-01-09T11:27:14.044Z,26.92
2023-01-09T11:30:20.119Z,25.88
2023-01-09T11:33:27.251Z,26.25
2023-01-09T11:36:33.411Z,27.33
2023-01-09T11:39:41.778Z,26.67
2023-01-09T11:43:21.462Z,25.17
2023-01-09T11:46:40.089Z,24.88
2023-01-09T11:49:42.207Z,23.83
2023-01-09T11:52:44.480Z,26.35
2023-01-09T11:55:51.376Z,23.33
2023-01-09T11:58:53.909Z,24.00
2023-01-09T12:02:14.641Z,23.88
2023-01-09T12:05:21.762Z,27.15
2023-01-09T12:08:49.021Z,23.13
2023-01-09T12:12:18.297Z,26.10
2023-01-09T12:15:32.692Z,24.15
2023-01-09T12:18:59.447Z,29.45
2023-01-09T12:22:28.117Z,29.08
2023-01-09T12:25:41.285Z,30.23
2023-01-09T12:28:43.556Z,25.35
2023-01-09T12:31:54.828Z,25.23
2023-01-09T12:35:21.637Z,33.97
2023-01-09T12:38:40.611Z,25.65
2023-01-09T12:42:15.331Z,26.35
2023-01-09T12:46:09.998Z,25.55
2023-01-09T12:49:27.675Z,22.88
2023-01-09T12:52:36.921Z,24.58
2023-01-09T12:55:47.748Z,23.67
2023-01-09T12:59:00.427Z,25.65
2023-01-09T13:02:11.673Z,24.92
2023-01-09T13:05:31.078Z,23.48
2023-01-09T13:08:52.741Z,22.37
2023-01-09T13:12:08.954Z,21.60
2023-01-09T13:15:29.688Z,19.98
2023-01-09T13:18:40.974Z,22.65
2023-01-09T13:21:43.484Z,24.02
2023-01-09T13:25:20.702Z,22.67
2023-01-09T13:28:37.208Z,21.50
2023-01-09T13:31:58.149Z,23.30
2023-01-09T13:35:01.481Z,25.00
2023-01-09T13:38:03.986Z,21.17
2023-01-09T13:41:27.828Z,20.17
2023-01-09T13:44:31.015Z,20.63
2023-01-09T13:47:33.939Z,21.77
2023-01-09T13:50:37.337Z,28.80
2023-01-09T13:53:44.303Z,27.35
2023-01-09T13:57:31.410Z,28.52
2023-01-09T14:00:36.593Z,31.27
2023-01-09T14:03:38.837Z,38.80
2023-01-09T14:06:40.927Z,32.78
2023-01-09T14:09:49.435Z,36.92
2023-01-09T14:12:54.351Z,35.30
2023-01-09T14:16:09.276Z,39.88
2023-01-09T14:19:27.760Z,38.53
2023-01-09T14:22:45.528Z,38.53
2023-01-09T14:26:06.600Z,38.50
2023-01-09T14:29:29.573Z,44.20
2023-01-09T14:32:36.239Z,40.90
2023-01-09T14:35:43.842Z,36.03
2023-01-09T14:38:55.723Z,35.33
2023-01-09T14:42:06.311Z,35.78
2023-01-09T14:45:18.453Z,35.10
2023-01-09T14:48:23.054Z,36.05
2023-01-09T14:51:27.879Z,36.53
2023-01-09T14:54:41.783Z,36.38
2023-01-09T14:57:43.908Z,35.08
2023-01-09T15:00:51.528Z,38.38
2023-01-09T15:03:59.133Z,32.70
2023-01-09T15:07:05.670Z,32.80
2023-01-09T15:10:14.944Z,29.30
2023-01-09T15:13:45.855Z,32.22
2023-01-09T15:16:48.280Z,28.38
2023-01-09T15:19:51.140Z,30.55
2023-01-09T15:22:55.196Z,28.58
2023-01-09T15:26:12.379Z,23.05
2023-01-09T15:29:20.500Z,21.52
2023-01-09T15:32:26.004Z,14.13
2023-01-09T15:35:28.956Z,9.23
2023-01-09T15:38:33.353Z,3.95
2023-01-09T15:41:53.884Z,2.97
2023-01-09T15:44:56.052Z,1.90
2023-01-09T15:48:15.038Z,1.88
2023-01-09T15:51:18.605Z,1.85
2023-01-09T15:54:33.421Z,2.60
2023-01-09T15:57:35.836Z,3.85
2023-01-09T16:00:41.950Z,1.70
2023-01-09T16:03:44.337Z,2.97
2023-01-09T16:06:51.806Z,1.95
2023-01-09T16:09:54.156Z,2.25
2023-01-09T16:12:57.000Z,2.10
2023-01-09T16:16:02.212Z,5.13
2023-01-09T16:19:04.532Z,7.15
2023-01-09T16:22:23.199Z,1.83
2023-01-09T16:25:27.973Z,2.53
2023-01-09T16:28:30.861Z,2.15
2023-01-09T16:31:33.469Z,4.35
2023-01-09T16:34:36.268Z,2.20
2023-01-09T16:37:38.895Z,1.95
2023-01-09T16:41:17.970Z,4.30
2023-01-09T16:44:20.052Z,2.53
2023-01-09T16:47:22.214Z,6.20
2023-01-09T16:50:25.442Z,3.90
2023-01-09T16:53:31.829Z,2.25
2023-01-09T16:56:35.831Z,4.45
2023-01-09T16:59:38.074Z,2.70
2023-01-09T17:02:40.158Z,4.28
2023-01-09T17:05:43.223Z,2.20
2023-01-09T17:08:45.394Z,3.47
2023-01-09T17:11:47.490Z,1.50
2023-01-09T17:14:50.219Z,4.07
2023-01-09T17:17:52.378Z,2.05
2023-01-09T17:20:56.704Z,1.80
2023-01-09T17:24:17.979Z,4.05
2023-01-09T17:27:44.788Z,2.42
2023-01-09T17:30:47.274Z,2.08
2023-01-09T17:33:49.664Z,2.72
2023-01-09T17:36:52.922Z,2.60
2023-01-09T17:40:01.056Z,4.15
2023-01-09T17:43:03.652Z,3.97
2023-01-09T17:46:06.115Z,7.03
2023-01-09T17:49:19.274Z,4.05
2023-01-09T17:52:22.327Z,10.82
2023-01-09T17:55:24.528Z,5.63
2023-01-09T17:58:30.333Z,4.60
2023-01-09T18:01:32.777Z,7.10
2023-01-09T18:04:38.804Z,4.60
2023-01-09T18:07:40.933Z,5.82
2023-01-09T18:10:45.500Z,6.82
2023-01-09T18:13:49.562Z,5.78
2023-01-09T18:16:51.859Z,4.50
2023-01-09T18:19:54.491Z,6.18
2023-01-09T18:22:56.909Z,4.45
2023-01-09T18:25:59.530Z,6.15
2023-01-09T18:29:02.216Z,7.15
2023-01-09T18:32:04.890Z,6.47
2023-01-09T18:35:10.201Z,7.05
2023-01-09T18:38:13.737Z,4.15
2023-01-09T18:41:17.527Z,6.75
2023-01-09T18:44:22.486Z,8.15
2023-01-09T18:47:24.847Z,6.13
2023-01-09T18:50:27.641Z,7.13
2023-01-09T18:53:30.033Z,12.43
2023-01-09T18:56:32.623Z,13.18
2023-01-09T18:59:35.478Z,11.57
2023-01-09T19:02:40.580Z,10.20
2023-01-09T19:05:43.990Z,11.88
2023-01-09T19:08:46.732Z,12.57
2023-01-09T19:11:53.795Z,11.75
2023-01-09T19:14:56.736Z,12.98
2023-01-09T19:18:04.238Z,9.88
2023-01-09T19:21:27.477Z,8.68
2023-01-09T19:24:31.643Z,10.60
2023-01-09T19:27:35.073Z,11.55
2023-01-09T19:30:37.805Z,10.93
2023-01-09T19:33:40.597Z,4.85
2023-01-09T19:36:45.227Z,7.72
2023-01-09T19:39:47.984Z,8.95
2023-01-09T19:42:54.187Z,6.32
2023-01-09T19:45:56.853Z,4.07
2023-01-09T19:49:04.637Z,8.13
2023-01-09T19:52:08.734Z,5.80
2023-01-09T19:55:15.711Z,4.47
2023-01-09T19:58:19.341Z,8.23
2023-01-09T20:01:24.850Z,6.82
2023-01-09T20:04:28.866Z,9.38
2023-01-09T20:07:32.805Z,5.85
2023-01-09T20:10:36.721Z,4.97
2023-01-09T20:13:41.148Z,6.32
2023-01-09T20:16:43.874Z,5.72
2023-01-09T20:19:46.957Z,7.30
2023-01-09T20:22:50.479Z,6.97
2023-01-09T20:25:54.574Z,9.02
2023-01-09T20:28:58.664Z,9.75
2023-01-09T20:32:01.492Z,9.80
2023-01-09T20:35:04.308Z,11.00
2023-01-09T20:38:06.924Z,8.70
2023-01-09T20:41:11.331Z,8.15
2023-01-09T20:44:16.018Z,10.30
2023-01-09T20:47:18.415Z,10.85
2023-01-09T20:50:21.725Z,10.07
2023-01-09T20:53:24.223Z,6.72
2023-01-09T20:56:28.285Z,8.57
2023-01-09T20:59:30.495Z,6.53
2023-01-09T21:02:34.189Z,8.65
2023-01-09T21:05:40.629Z,7.32
2023-01-09T21:08:44.911Z,7.43
2023-01-09T21:11:47.027Z,4.65
2023-01-09T21:14:49.154Z,9.27
2023-01-09T21:17:51.192Z,6.72
2023-01-09T21:20:53.341Z,9.88
2023-01-09T21:23:58.086Z,9.07
2023-01-09T21:27:00.229Z,6.03
2023-01-09T21:30:03.980Z,5.78
2023-01-09T21:33:06.081Z,6.88
2023-01-09T21:36:09.146Z,5.90
2023-01-09T21:39:11.290Z,4.97
2023-01-09T21:42:31.915Z,5.47
2023-01-09T21:45:53.001Z,5.18
2023-01-09T21:48:55.215Z,5.50
2023-01-09T21:51:57.583Z,5.85
2023-01-09T21:54:59.674Z,5.03
2023-01-09T21:58:02.133Z,5.32
2023-01-09T22:01:04.352Z,4.50
2023-01-09T22:04:06.623Z,5.40
2023-01-09T22:07:12.797Z,4.70
2023-01-09T22:10:14.921Z,6.45
2023-01-09T22:13:17.868Z,7.15
2023-01-09T22:16:20.212Z,5.63
2023-01-09T22:19:22.665Z,4.95
2023-01-09T22:22:24.791Z,5.18
2023-01-09T22:25:26.863Z,6.55
2023-01-09T22:28:29.391Z,6.05
2023-01-09T22:31:33.051Z,4.25
2023-01-09T22:34:35.127Z,4.75
2023-01-09T22:37:37.269Z,6.93
2023-01-09T22:40:40.011Z,5.47
2023-01-09T22:43:42.146Z,3.65
2023-01-09T22:46:44.918Z,3.47
2023-01-09T22:49:52.660Z,3.85
2023-01-09T22:52:55.588Z,3.95
2023-01-09T22:56:09.947Z,5.68
2023-01-09T22:59:12.021Z,4.65
2023-01-09T23:02:14.250Z,4.20
2023-01-09T23:05:16.889Z,5.32
2023-01-09T23:08:19.082Z,5.65
2023-01-09T23:11:43.475Z,6.25
2023-01-09T23:14:46.117Z,4.40
2023-01-09T23:17:48.241Z,7.28
2023-01-09T23:20:55.898Z,10.32
2023-01-09T23:23:58.030Z,7.18
2023-01-09T23:27:00.381Z,6.90
2023-01-09T23:30:02.564Z,6.30
2023-01-09T23:33:04.681Z,5.70
2023-01-09T23:36:06.864Z,8.77
2023-01-09T23:39:10.117Z,7.00
2023-01-09T23:42:30.827Z,5.30
2023-01-09T23:45:33.851Z,4.57
2023-01-09T23:48:35.914Z,5.53
2023-01-09T23:51:38.019Z,5.50
2023-01-09T23:54:40.126Z,6.50
2023-01-09T23:57:42.182Z,6.90
